Terminal Aerodrome Forecast
Issued by NWS Grand Forks, ND

Home | Current Version | Previous Version | Text Only | Print | Product List | Glossary Off
Versions: 1 2 3 4 5 6 7 8 9 10 11 12 13 14 15 16 17 18 19 20 21 22 23 24 25 26

000
FTUS43 KFGF 262324
TAFGFK
TAF
KGFK 262324Z 2700/2724 36014KT 2SM -SN SCT008 BKN018 OVC040
      TEMPO 2700/2701 1/2SM SN BKN008 OVC020
     FM270300 01012KT 5SM -SN OVC010
     FM270500 01011KT P6SM BKN010
     FM271700 35014KT P6SM BKN020=

USA.gov is the U.S. government's official web portal to all federal, state and local government web resources and services.